.
WxDataArchive / Data Records for 2010-08-08
2010-08-07 August 2010 2010-08-09

Data Records for Sunday, 08 August 2010

Time	Temp	Chill	HIndex	Humid	Dewpt	 Wind 	HiWind	WindDir	Rain 	Barom 
-----	----	-----	------	-----	-----	------	------	-------	-----	----- 
00:00	67.6	67.6	67.6	86	63.3	0	0	---	0.00	29.948 
00:05	67.6	67.6	67.6	87	63.6	0	0	---	0.00	29.948 
00:10	67.6	67.6	67.6	87	63.6	0	0	---	0.00	29.948 
00:15	67.6	67.6	67.6	87	63.6	0	0	---	0.00	29.946 
00:20	67.4	67.4	67.4	87	63.4	0	0	---	0.00	29.946 
00:25	67.4	67.4	67.4	88	63.7	0	0	---	0.00	29.946 
00:30	67.3	67.3	67.3	88	63.6	0	0	---	0.00	29.943 
00:35	67.3	67.3	67.3	88	63.6	0	0	---	0.00	29.943 
00:40	67.3	67.3	67.3	88	63.6	0	0	---	0.00	29.943 
00:45	67.3	67.3	67.3	88	63.6	0	0	---	0.00	29.944 
00:50	67.1	67.1	67.1	88	63.4	0	0	---	0.00	29.944 
00:55	67.1	67.1	67.1	88	63.4	0	0	---	0.00	29.944 
01:00	67.1	67.1	67.1	88	63.4	0	0	---	0.00	29.941 
01:05	67.1	67.1	67.1	88	63.4	0	0	---	0.00	29.941 
01:10	66.9	66.9	66.9	88	63.2	0	0	---	0.00	29.941 
01:15	66.9	66.9	66.9	88	63.2	0	0	---	0.00	29.940 
01:20	67.1	67.1	67.1	88	63.4	0	0	---	0.00	29.940 
01:25	67.1	67.1	67.1	88	63.4	0	0	---	0.00	29.940 
01:30	67.1	67.1	67.1	88	63.4	0	0	---	0.00	29.938 
01:35	67.1	67.1	67.1	88	63.4	0	0	---	0.00	29.938 
01:40	67.1	67.1	67.1	88	63.4	0	0	---	0.00	29.938 
01:45	66.9	66.9	66.9	88	63.2	0	0	---	0.00	29.937 
01:50	66.9	66.9	66.9	88	63.2	0	0	---	0.00	29.937 
01:55	66.9	66.9	66.9	88	63.2	0	0	---	0.00	29.937 
02:00	66.8	66.8	66.8	88	63.1	0	0	---	0.00	29.935 
02:05	66.9	66.9	66.9	88	63.2	0	0	---	0.00	29.935 
02:10	66.8	66.8	66.8	87	62.8	0	0	---	0.00	29.935 
02:15	66.8	66.8	66.8	87	62.8	0	0	---	0.00	29.933 
02:20	66.8	66.8	66.8	87	62.8	0	0	---	0.00	29.933 
02:25	66.8	66.8	66.8	87	62.8	0	0	---	0.00	29.933 
02:30	66.6	66.6	66.6	87	62.6	0	0	---	0.00	29.932 
02:35	66.6	66.6	66.6	87	62.6	0	0	---	0.00	29.932 
02:40	66.6	66.6	66.6	87	62.6	0	1	270	0.00	29.932 
02:45	66.6	66.6	66.6	87	62.6	0	0	---	0.00	29.932 
02:50	66.8	66.8	66.8	87	62.8	0	0	---	0.00	29.932 
02:55	66.8	66.8	66.8	86	62.5	0	0	---	0.00	29.932 
03:00	66.9	66.9	66.9	86	62.6	0	0	---	0.00	29.934 
03:05	66.9	66.9	66.9	86	62.6	0	0	---	0.00	29.934 
03:10	66.9	66.9	66.9	86	62.6	0	0	---	0.00	29.934 
03:15	66.9	66.9	66.9	85	62.2	0	0	---	0.00	29.935 
03:20	66.9	66.9	66.9	85	62.2	0	0	---	0.00	29.935 
03:25	66.8	66.8	66.8	85	62.1	0	0	---	0.00	29.935 
03:30	66.8	66.8	66.8	85	62.1	0	0	---	0.00	29.934 
03:35	66.8	66.8	66.8	85	62.1	0	0	---	0.00	29.934 
03:40	66.8	66.8	66.8	85	62.1	0	1	270	0.00	29.934 
03:45	66.8	66.8	66.8	85	62.1	0	1	270	0.00	29.934 
03:50	66.8	66.8	66.8	84	61.8	0	0	---	0.00	29.934 
03:55	66.8	66.8	66.8	84	61.8	0	0	---	0.00	29.934 
04:00	66.8	66.8	66.8	84	61.8	0	0	---	0.00	29.934 
04:05	66.6	66.6	66.6	84	61.6	0	0	---	0.00	29.934 
04:10	66.6	66.6	66.6	84	61.6	0	0	---	0.00	29.934 
04:15	66.4	66.4	66.4	84	61.4	0	0	---	0.00	29.933 
04:20	66.3	66.3	66.3	84	61.3	0	0	---	0.00	29.933 
04:25	66.1	66.1	66.1	85	61.5	0	0	---	0.00	29.933 
04:30	66.0	66.0	66.0	85	61.4	0	1	270	0.00	29.933 
04:35	66.0	66.0	66.0	84	61.0	0	0	---	0.00	29.933 
04:40	66.0	66.0	66.0	84	61.0	0	0	---	0.00	29.933 
04:45	66.0	66.0	66.0	84	61.0	0	0	---	0.00	29.932 
04:50	66.0	66.0	66.0	84	61.0	0	0	---	0.00	29.932 
04:55	66.1	66.1	66.1	84	61.1	0	1	270	0.00	29.932 
05:00	66.1	66.1	66.1	83	60.8	0	1	270	0.00	29.931 
05:05	66.1	66.1	66.1	83	60.8	0	0	---	0.00	29.931 
05:10	66.0	66.0	66.0	83	60.7	0	0	---	0.00	29.931 
05:15	66.0	66.0	66.0	83	60.7	0	0	---	0.00	29.933 
05:20	66.0	66.0	66.0	83	60.7	0	0	---	0.00	29.933 
05:25	66.0	66.0	66.0	83	60.7	0	0	---	0.00	29.933 
05:30	65.8	65.8	65.8	83	60.5	0	0	---	0.00	29.932 
05:35	65.8	65.8	65.8	83	60.5	0	0	---	0.00	29.932 
05:40	65.6	65.6	65.6	83	60.3	0	0	---	0.00	29.932 
05:45	65.8	65.8	65.8	83	60.5	0	0	---	0.00	29.931 
05:50	66.0	66.0	66.0	82	60.3	0	0	---	0.00	29.931 
05:55	66.0	66.0	66.0	82	60.3	0	0	---	0.00	29.931 
06:00	66.0	66.0	66.0	82	60.3	0	1	270	0.00	29.935 
06:05	66.0	66.0	66.0	81	60.0	0	0	---	0.00	29.935 
06:10	66.0	66.0	66.0	81	60.0	0	1	270	0.00	29.935 
06:15	66.0	66.0	66.0	81	60.0	0	0	---	0.00	29.939 
06:20	66.1	66.1	66.1	81	60.1	0	0	---	0.00	29.939 
06:25	66.1	66.1	66.1	81	60.1	0	0	---	0.00	29.939 
06:30	66.3	66.3	66.3	81	60.3	0	0	---	0.00	29.940 
06:35	66.3	66.3	66.3	81	60.3	0	0	---	0.00	29.940 
06:40	66.4	66.4	66.4	81	60.4	0	0	---	0.00	29.940 
06:45	66.4	66.4	66.4	81	60.4	0	0	---	0.00	29.935 
06:50	66.4	66.4	66.4	81	60.4	0	0	---	0.00	29.935 
06:55	66.4	66.4	66.4	81	60.4	0	0	---	0.00	29.935 
07:00	66.4	66.4	66.4	81	60.4	0	0	---	0.00	29.934 
07:05	66.4	66.4	66.4	81	60.4	0	0	---	0.00	29.934 
07:10	66.4	66.4	66.4	81	60.4	0	0	---	0.00	29.934 
07:15	66.4	66.4	66.4	81	60.4	0	0	---	0.00	29.933 
07:20	66.4	66.4	66.4	81	60.4	0	1	270	0.00	29.933 
07:25	66.3	66.3	66.3	81	60.3	0	0	---	0.00	29.933 
07:30	66.3	66.3	66.3	81	60.3	0	0	---	0.00	29.935 
07:35	66.3	66.3	66.3	81	60.3	0	0	---	0.00	29.935 
07:40	66.4	66.4	66.4	81	60.4	0	1	270	0.00	29.935 
07:45	66.6	66.6	66.6	81	60.6	0	1	270	0.00	29.932 
07:50	66.9	66.9	66.9	80	60.5	0	2	270	0.00	29.932 
07:55	67.3	67.3	67.3	79	60.6	0	2	270	0.00	29.932 
08:00	67.8	67.8	67.8	78	60.7	0	1	270	0.00	29.936 
08:05	68.3	68.3	68.3	77	60.8	0	1	270	0.00	29.936 
08:10	68.8	68.8	68.8	76	60.9	0	1	270	0.00	29.936 
08:15	69.3	69.3	69.3	74	60.6	0	1	270	0.00	29.938 
08:20	69.8	69.8	69.8	73	60.7	0	1	270	0.00	29.938 
08:25	70.4	70.4	70.4	71	60.5	0	2	270	0.00	29.938 
08:30	70.9	70.9	70.9	70	60.6	0	2	270	0.00	29.944 
08:35	71.5	71.5	71.5	69	60.8	0	1	270	0.00	29.944 
08:40	72.0	72.0	72.0	66	60.0	0	3	270	0.00	29.944 
08:45	72.5	72.5	72.5	65	60.0	1	3	248	0.00	29.948 
08:50	72.8	72.8	72.8	65	60.3	0	1	248	0.00	29.948 
08:55	73.3	73.3	73.3	64	60.4	1	3	248	0.00	29.948 
09:00	73.7	73.7	73.7	62	59.9	0	2	248	0.00	29.950 
09:05	74.0	74.0	74.0	62	60.1	1	4	248	0.00	29.950 
09:10	74.4	74.4	74.4	60	59.6	1	3	248	0.00	29.950 
09:15	74.9	74.9	74.9	61	60.5	0	1	270	0.00	29.953 
09:20	75.4	75.4	77.6	60	60.5	0	2	270	0.00	29.953 
09:25	75.8	75.8	77.9	59	60.4	0	2	270	0.00	29.953 
09:30	76.0	76.0	78.0	58	60.1	1	4	270	0.00	29.958 
09:35	76.1	76.1	78.1	54	58.2	1	4	270	0.00	29.958 
09:40	76.3	76.3	78.3	55	58.9	1	3	270	0.00	29.958 
09:45	76.8	76.8	78.6	56	59.9	1	3	270	0.00	29.959 
09:50	77.4	77.4	79.0	56	60.5	0	3	270	0.00	29.959 
09:55	77.7	77.7	79.3	56	60.7	0	3	270	0.00	29.959 
10:00	78.1	78.1	79.5	53	59.6	1	4	270	0.00	29.961 
10:05	78.3	78.3	79.6	53	59.7	1	3	270	0.00	29.961 
10:10	78.6	78.6	79.8	53	60.0	1	3	270	0.00	29.961 
10:15	79.0	79.0	80.3	54	60.9	0	2	270	0.00	29.964 
10:20	79.6	79.6	80.7	53	60.9	0	2	248	0.00	29.964 
10:25	79.9	79.9	80.9	52	60.7	0	2	248	0.00	29.964 
10:30	80.1	80.1	81.0	51	60.3	1	3	248	0.00	29.964 
10:35	80.3	80.3	81.3	52	61.0	1	2	292	0.00	29.964 
10:40	80.5	80.5	81.3	50	60.1	1	4	292	0.00	29.964 
10:45	80.3	80.3	81.1	50	59.9	2	6	270	0.00	29.966 
10:50	80.3	80.3	81.3	52	61.0	1	4	270	0.00	29.966 
10:55	80.5	80.5	81.3	50	60.1	2	4	270	0.00	29.966 
11:00	81.1	81.1	82.0	51	61.2	1	3	270	0.00	29.962 
11:05	81.4	81.4	82.0	49	60.4	2	5	270	0.00	29.962 
11:10	81.6	81.6	82.2	49	60.6	2	4	270	0.00	29.962 
11:15	81.6	81.6	82.1	48	60.0	2	7	270	0.00	29.957 
11:20	81.6	81.6	82.2	49	60.6	2	5	270	0.00	29.957 
11:25	81.6	81.6	82.2	49	60.6	3	6	270	0.00	29.957 
11:30	81.8	81.8	82.6	50	61.3	2	4	270	0.00	29.962 
11:35	82.0	82.0	82.6	49	60.9	2	4	270	0.00	29.962 
11:40	81.8	81.8	82.7	51	61.9	2	4	292	0.00	29.962 
11:45	81.6	81.6	82.5	51	61.7	2	6	270	0.00	29.952 
11:50	81.8	81.8	82.7	51	61.9	1	3	270	0.00	29.952 
11:55	82.2	82.2	83.1	51	62.2	1	5	225	0.00	29.952 
12:00	82.8	82.8	83.7	50	62.2	2	6	248	0.00	29.934 
12:05	83.0	83.0	83.9	50	62.4	2	5	270	0.00	29.934 
12:10	83.0	83.0	83.5	48	61.3	2	4	248	0.00	29.934 
12:15	82.8	82.8	83.5	49	61.7	2	4	248	0.00	29.932 
12:20	83.0	83.0	83.5	48	61.3	2	4	248	0.00	29.932 
12:25	83.6	83.6	84.4	49	62.4	2	5	270	0.00	29.932 
12:30	84.0	84.0	84.3	46	61.0	2	6	270	0.00	29.925 
12:35	84.0	84.0	84.5	47	61.6	1	3	270	0.00	29.925 
12:40	84.0	84.0	84.3	46	61.0	2	5	270	0.00	29.925 
12:45	83.6	83.6	84.1	47	61.2	2	4	292	0.00	29.915 
12:50	83.4	83.4	84.2	49	62.2	2	4	292	0.00	29.915 
12:55	83.4	83.4	84.2	49	62.2	1	4	270	0.00	29.915 
13:00	83.6	83.6	84.4	49	62.4	1	5	248	0.00	29.926 
13:05	83.8	83.8	84.7	49	62.6	1	3	270	0.00	29.926 
13:10	83.8	83.8	84.5	48	62.0	2	5	270	0.00	29.926 
13:15	83.8	83.8	84.7	49	62.6	1	4	248	0.00	29.923 
13:20	84.0	84.0	85.1	50	63.3	1	4	270	0.00	29.923 
13:25	84.0	84.0	84.7	48	62.2	1	3	22	0.00	29.923 
13:30	84.0	84.0	84.7	48	62.2	2	4	248	0.00	29.916 
13:35	83.8	83.8	84.7	49	62.6	1	5	270	0.00	29.916 
13:40	84.0	84.0	84.7	48	62.2	1	4	225	0.00	29.916 
13:45	83.8	83.8	84.9	50	63.1	2	4	270	0.00	29.915 
13:50	83.8	83.8	84.9	50	63.1	0	2	270	0.00	29.915 
13:55	84.0	84.0	85.1	50	63.3	1	4	292	0.00	29.915 
14:00	84.1	84.1	85.3	50	63.4	1	4	270	0.00	29.911 
14:05	84.5	84.5	86.3	52	64.9	1	4	248	0.00	29.911 
14:10	84.3	84.3	85.1	48	62.4	2	4	292	0.00	29.911 
14:15	84.5	84.5	85.8	50	63.8	1	2	292	0.00	29.908 
14:20	84.3	84.3	85.1	48	62.4	2	7	248	0.00	29.908 
14:25	84.0	84.0	84.9	49	62.8	1	6	270	0.00	29.908 
14:30	84.1	84.1	84.6	47	61.7	2	5	270	0.00	29.914 
14:35	84.0	84.0	84.3	46	61.0	2	5	270	0.00	29.914 
14:40	84.0	84.0	84.5	47	61.6	2	4	270	0.00	29.914 
14:45	83.8	83.8	84.7	49	62.6	2	5	270	0.00	29.907 
14:50	83.6	83.6	84.1	47	61.2	2	6	270	0.00	29.907 
14:55	83.6	83.6	84.1	47	61.2	2	5	292	0.00	29.907 
15:00	83.8	83.8	84.3	47	61.4	1	3	270	0.00	29.910 
15:05	83.8	83.8	84.3	47	61.4	2	6	248	0.00	29.910 
15:10	84.0	84.0	84.5	47	61.6	1	3	248	0.00	29.910 
15:15	84.0	84.0	84.5	47	61.6	1	5	292	0.00	29.906 
15:20	84.3	84.3	85.1	48	62.4	1	3	270	0.00	29.906 
15:25	84.3	84.3	85.1	48	62.4	1	5	248	0.00	29.906 
15:30	84.3	84.3	85.5	50	63.6	1	3	248	0.00	29.916 
15:35	84.3	84.3	85.5	50	63.6	1	3	248	0.00	29.916 
15:40	84.3	84.3	85.7	51	64.2	1	3	248	0.00	29.916 
15:45	84.3	84.3	86.0	52	64.7	0	2	248	0.00	29.908 
15:50	84.3	84.3	86.0	52	64.7	1	2	248	0.00	29.908 
15:55	84.5	84.5	86.3	52	64.9	1	4	248	0.00	29.908 
16:00	84.7	84.7	86.0	50	64.0	0	2	248	0.00	29.908 
16:05	84.9	84.9	87.3	54	66.4	0	2	248	0.00	29.908 
16:10	85.3	85.3	87.7	53	66.2	0	2	248	0.00	29.908 
16:15	85.3	85.3	87.4	52	65.6	1	3	248	0.00	29.905 
16:20	85.3	85.3	86.9	50	64.5	1	2	270	0.00	29.905 
16:25	85.3	85.3	86.9	50	64.5	1	4	270	0.00	29.905 
16:30	85.1	85.1	87.1	52	65.5	1	4	292	0.00	29.908 
16:35	85.1	85.1	86.9	51	64.9	1	4	315	0.00	29.908 
16:40	85.5	85.5	87.2	50	64.7	1	4	248	0.00	29.908 
16:45	85.7	85.7	87.2	49	64.3	1	6	248	0.00	29.906 
16:50	85.7	85.7	87.4	50	64.9	1	3	248	0.00	29.906 
16:55	85.5	85.5	87.2	50	64.7	1	4	248	0.00	29.906 
17:00	85.1	85.1	86.9	51	64.9	0	3	292	0.00	29.903 
17:05	84.9	84.9	86.6	51	64.7	1	4	292	0.00	29.903 
17:10	85.3	85.3	86.9	50	64.5	1	2	0	0.00	29.903 
17:15	85.5	85.5	87.4	51	65.3	1	2	248	0.00	29.905 
17:20	85.7	85.7	88.0	52	66.0	1	3	248	0.00	29.905 
17:25	85.7	85.7	87.7	51	65.5	1	4	248	0.00	29.905 
17:30	85.7	85.7	87.7	51	65.5	1	4	270	0.00	29.901 
17:35	85.7	85.7	88.3	53	66.6	0	2	270	0.00	29.901 
17:40	85.5	85.5	88.3	54	66.9	1	3	315	0.00	29.901 
17:45	85.5	85.5	87.4	51	65.3	1	4	292	0.00	29.899 
17:50	85.3	85.3	87.4	52	65.6	1	3	270	0.00	29.899 
17:55	85.3	85.3	88.0	54	66.7	0	2	248	0.00	29.899 
18:00	85.3	85.3	87.7	53	66.2	0	2	248	0.00	29.899 
18:05	85.1	85.1	87.4	53	66.0	1	3	90	0.00	29.899 
18:10	84.9	84.9	87.1	53	65.8	1	3	68	0.00	29.899 
18:15	84.5	84.5	87.0	55	66.5	1	4	292	0.00	29.901 
18:20	84.1	84.1	86.2	54	65.6	1	6	248	0.00	29.901 
18:25	84.1	84.1	86.4	55	66.2	1	3	90	0.00	29.901 
18:30	83.8	83.8	86.4	57	66.9	1	4	90	0.00	29.899 
18:35	83.8	83.8	86.4	57	66.9	0	3	338	0.00	29.899 
18:40	83.6	83.6	85.7	55	65.7	1	2	338	0.00	29.899 
18:45	83.4	83.4	85.8	57	66.5	0	1	315	0.00	29.900 
18:50	83.4	83.4	85.6	56	66.0	0	2	292	0.00	29.900 
18:55	83.2	83.2	85.6	57	66.4	0	3	90	0.00	29.900 
19:00	83.2	83.2	85.6	57	66.4	0	3	68	0.00	29.901 
19:05	83.0	83.0	85.3	57	66.2	0	3	292	0.00	29.901 
19:10	82.8	82.8	85.2	58	66.5	0	3	45	0.00	29.901 
19:15	82.8	82.8	85.2	58	66.5	0	1	45	0.00	29.899 
19:20	82.6	82.6	84.9	58	66.3	0	1	45	0.00	29.899 
19:25	82.6	82.6	84.9	58	66.3	0	1	45	0.00	29.899 
19:30	82.6	82.6	84.7	57	65.8	0	2	45	0.00	29.901 
19:35	82.4	82.4	84.4	57	65.6	0	1	225	0.00	29.901 
19:40	82.2	82.2	84.3	58	65.9	0	1	225	0.00	29.901 
19:45	82.2	82.2	84.5	59	66.4	0	1	225	0.00	29.900 
19:50	82.0	82.0	84.2	59	66.2	0	1	225	0.00	29.900 
19:55	81.8	81.8	84.1	60	66.5	0	2	202	0.00	29.900 
20:00	81.6	81.6	83.9	60	66.3	0	2	180	0.00	29.899 
20:05	81.6	81.6	84.0	61	66.8	0	1	135	0.00	29.899 
20:10	81.4	81.4	83.8	61	66.6	0	1	135	0.00	29.899 
20:15	81.2	81.2	83.5	61	66.4	0	1	135	0.00	29.894 
20:20	81.1	81.1	83.5	62	66.8	0	1	135	0.00	29.894 
20:25	80.9	80.9	83.4	63	67.1	0	0	---	0.00	29.894 
20:30	80.5	80.5	82.8	63	66.7	0	0	---	0.00	29.895 
20:35	80.3	80.3	82.7	64	67.0	0	1	135	0.00	29.895 
20:40	79.9	79.9	82.2	65	67.1	0	0	---	0.00	29.895 
20:45	79.6	79.6	81.8	65	66.8	0	0	---	0.00	29.897 
20:50	79.4	79.4	81.6	65	66.6	0	0	---	0.00	29.897 
20:55	79.0	79.0	81.1	66	66.6	0	0	---	0.00	29.897 
21:00	78.8	78.8	80.9	67	66.9	0	0	---	0.00	29.896 
21:05	78.5	78.5	80.6	68	67.0	0	0	---	0.00	29.896 
21:10	78.3	78.3	80.4	69	67.3	0	0	---	0.00	29.896 
21:15	77.9	77.9	79.9	69	66.9	0	0	---	0.00	29.891 
21:20	77.7	77.7	79.6	70	67.1	0	0	---	0.00	29.891 
21:25	77.4	77.4	79.3	70	66.8	0	0	---	0.00	29.891 
21:30	77.2	77.2	79.0	71	67.0	0	0	---	0.00	29.895 
21:35	76.8	76.8	78.5	73	67.5	0	0	---	0.00	29.895 
21:40	76.5	76.5	78.1	73	67.2	0	0	---	0.00	29.895 
21:45	76.1	76.1	77.5	75	67.6	0	0	---	0.00	29.904 
21:50	75.8	75.8	77.1	75	67.3	0	0	---	0.00	29.904 
21:55	75.6	75.6	76.7	77	67.9	0	0	---	0.00	29.904 
22:00	75.4	75.4	76.4	77	67.7	0	0	---	0.00	29.910 
22:05	75.1	75.1	76.0	78	67.8	0	0	---	0.00	29.910 
22:10	74.9	74.9	74.9	78	67.6	0	0	---	0.00	29.910 
22:15	74.7	74.7	74.7	79	67.7	0	0	---	0.00	29.909 
22:20	74.6	74.6	74.6	80	68.0	0	0	---	0.00	29.909 
22:25	74.4	74.4	74.4	80	67.8	0	0	---	0.00	29.909 
22:30	74.2	74.2	74.2	80	67.6	0	0	---	0.00	29.911 
22:35	74.0	74.0	74.0	81	67.8	0	0	---	0.00	29.911 
22:40	73.9	73.9	73.9	81	67.7	0	0	---	0.00	29.911 
22:45	73.7	73.7	73.7	81	67.5	0	0	---	0.00	29.912 
22:50	73.5	73.5	73.5	82	67.7	0	0	---	0.00	29.912 
22:55	73.3	73.3	73.3	82	67.5	0	0	---	0.00	29.912 
23:00	73.2	73.2	73.2	82	67.4	0	0	---	0.00	29.912 
23:05	73.2	73.2	73.2	82	67.4	0	0	---	0.00	29.912 
23:10	73.2	73.2	73.2	82	67.4	0	0	---	0.00	29.912 
23:15	73.3	73.3	73.3	82	67.5	0	0	---	0.00	29.910 
23:20	73.3	73.3	73.3	82	67.5	0	0	---	0.00	29.910 
23:25	73.3	73.3	73.3	82	67.5	0	0	---	0.00	29.910 
23:30	73.5	73.5	73.5	81	67.3	0	0	---	0.00	29.913 
23:35	73.3	73.3	73.3	81	67.1	0	1	135	0.00	29.913 
23:40	73.3	73.3	73.3	81	67.1	0	0	---	0.00	29.913 
23:45	73.5	73.5	73.5	81	67.3	0	1	135	0.00	29.918 
23:50	73.5	73.5	73.5	81	67.3	0	0	---	0.00	29.918 
23:55	73.5	73.5	73.5	81	67.3	0	1	135	0.00	29.918 

CoCoRaHS
IN-AL-39
A2 Web Hosting
Creative Commons License
GoDaddy
search engine by freefind advanced

loaded 2018-11-15 05:44:08 • last modified 2010-11-18 10:43:29
Privacy PolicyDisclaimer
• wx.awcolley.com is powered by PmWiki v.2002016 •
• all content (unless otherwise noted) © 2018 A W Colley